createdAt,value
2023-01-30T00:01:29.612Z,25.43
2023-01-30T00:03:57.110Z,25.90
2023-01-30T00:06:24.419Z,24.97
2023-01-30T00:08:51.922Z,24.07
2023-01-30T00:11:20.294Z,30.30
2023-01-30T00:13:48.788Z,25.13
2023-01-30T00:16:16.216Z,22.97
2023-01-30T00:18:43.912Z,23.33
2023-01-30T00:21:12.672Z,25.13
2023-01-30T00:23:40.120Z,23.57
2023-01-30T00:26:07.525Z,21.77
2023-01-30T00:28:34.747Z,26.20
2023-01-30T00:31:02.104Z,23.37
2023-01-30T00:33:29.591Z,20.93
2023-01-30T00:35:57.851Z,18.37
2023-01-30T00:38:25.853Z,21.30
2023-01-30T00:40:53.166Z,23.13
2023-01-30T00:43:39.820Z,24.53
2023-01-30T00:46:32.371Z,20.27
2023-01-30T00:48:59.566Z,25.73
2023-01-30T00:51:26.847Z,23.47
2023-01-30T00:53:54.024Z,20.43
2023-01-30T00:56:21.156Z,21.13
2023-01-30T00:58:48.426Z,22.67
2023-01-30T01:01:15.689Z,19.77
2023-01-30T01:03:43.016Z,19.27
2023-01-30T01:06:10.343Z,17.43
2023-01-30T01:08:37.526Z,20.73
2023-01-30T01:11:04.855Z,23.50
2023-01-30T01:13:32.075Z,19.90
2023-01-30T01:15:59.340Z,18.40
2023-01-30T01:18:26.650Z,17.80
2023-01-30T01:20:53.916Z,18.73
2023-01-30T01:23:21.046Z,20.50
2023-01-30T01:25:48.209Z,19.20
2023-01-30T01:28:17.915Z,19.57
2023-01-30T01:30:45.137Z,15.67
2023-01-30T01:33:12.274Z,18.67
2023-01-30T01:35:42.441Z,20.47
2023-01-30T01:38:09.748Z,17.17
2023-01-30T01:40:55.394Z,17.37
2023-01-30T01:43:24.015Z,18.17
2023-01-30T01:45:56.653Z,19.47
2023-01-30T01:48:28.261Z,17.17
2023-01-30T01:50:58.498Z,18.07
2023-01-30T01:53:28.885Z,16.83
2023-01-30T01:55:57.683Z,16.93
2023-01-30T01:58:30.729Z,17.60
2023-01-30T02:00:59.583Z,18.13
2023-01-30T02:03:29.270Z,17.13
2023-01-30T02:05:58.802Z,17.83
2023-01-30T02:08:28.232Z,16.20
2023-01-30T02:11:04.646Z,14.70
2023-01-30T02:13:32.430Z,18.43
2023-01-30T02:16:00.832Z,15.37
2023-01-30T02:18:29.067Z,18.10
2023-01-30T02:21:11.277Z,18.10
2023-01-30T02:23:38.429Z,17.77
2023-01-30T02:26:14.420Z,17.07
2023-01-30T02:29:00.609Z,17.23
2023-01-30T02:31:41.547Z,15.73
2023-01-30T02:34:15.615Z,16.27
2023-01-30T02:36:52.062Z,17.97
2023-01-30T02:39:24.516Z,16.53
2023-01-30T02:42:00.725Z,17.37
2023-01-30T02:44:31.169Z,16.27
2023-01-30T02:47:04.396Z,19.93
2023-01-30T02:49:34.796Z,20.87
2023-01-30T02:52:03.152Z,18.23
2023-01-30T02:54:30.373Z,19.97
2023-01-30T02:57:01.107Z,18.70
2023-01-30T02:59:32.789Z,18.73
2023-01-30T03:02:27.873Z,15.43
2023-01-30T03:04:55.031Z,18.43
2023-01-30T03:07:36.000Z,21.87
2023-01-30T03:10:07.349Z,18.80
2023-01-30T03:12:40.589Z,16.57
2023-01-30T03:15:10.500Z,17.97
2023-01-30T03:17:38.482Z,17.93
2023-01-30T03:20:06.038Z,18.67
2023-01-30T03:22:33.220Z,19.73
2023-01-30T03:25:00.463Z,21.03
2023-01-30T03:27:27.986Z,18.80
2023-01-30T03:29:55.187Z,18.10
2023-01-30T03:32:22.416Z,17.47
2023-01-30T03:34:49.647Z,17.17
2023-01-30T03:37:16.834Z,19.00
2023-01-30T03:39:44.063Z,18.63
2023-01-30T03:42:11.347Z,21.83
2023-01-30T03:44:39.066Z,18.93
2023-01-30T03:47:06.685Z,17.93
2023-01-30T03:49:33.810Z,20.97
2023-01-30T03:52:01.036Z,20.03
2023-01-30T03:54:28.186Z,21.70
2023-01-30T03:56:55.419Z,18.20
2023-01-30T03:59:22.631Z,21.83
2023-01-30T04:01:49.816Z,18.90
2023-01-30T04:04:16.935Z,21.73
2023-01-30T04:06:44.099Z,23.00
2023-01-30T04:09:12.666Z,21.03
2023-01-30T04:11:39.814Z,21.70
2023-01-30T04:14:07.009Z,21.17
2023-01-30T04:16:34.219Z,18.83
2023-01-30T04:19:01.368Z,22.27
2023-01-30T04:21:28.570Z,19.87
2023-01-30T04:23:55.705Z,22.97
2023-01-30T04:26:22.884Z,24.70
2023-01-30T04:28:50.027Z,21.80
2023-01-30T04:31:17.264Z,21.53
2023-01-30T04:33:44.505Z,22.30
2023-01-30T04:36:12.717Z,20.20
2023-01-30T04:38:39.972Z,22.57
2023-01-30T04:41:07.118Z,21.33
2023-01-30T04:43:34.386Z,21.77
2023-01-30T04:46:01.630Z,20.57
2023-01-30T04:48:28.912Z,20.40
2023-01-30T04:50:56.961Z,20.73
2023-01-30T04:53:26.977Z,20.13
2023-01-30T04:55:54.163Z,18.80
2023-01-30T04:58:21.340Z,22.90
2023-01-30T05:00:49.180Z,20.27
2023-01-30T05:03:16.382Z,20.23
2023-01-30T05:05:43.576Z,25.13
2023-01-30T05:08:10.697Z,19.93
2023-01-30T05:10:37.819Z,24.80
2023-01-30T05:13:06.074Z,20.73
2023-01-30T05:15:33.820Z,20.47
2023-01-30T05:18:01.263Z,20.00
2023-01-30T05:20:28.532Z,20.53
2023-01-30T05:22:55.684Z,21.87
2023-01-30T05:25:22.937Z,22.07
2023-01-30T05:27:50.078Z,21.97
2023-01-30T05:30:17.493Z,20.43
2023-01-30T05:32:44.739Z,22.13
2023-01-30T05:35:11.936Z,22.70
2023-01-30T05:37:39.113Z,20.70
2023-01-30T05:40:06.708Z,23.70
2023-01-30T05:42:34.095Z,23.10
2023-01-30T05:45:01.532Z,23.03
2023-01-30T05:47:28.724Z,22.00
2023-01-30T05:49:55.854Z,22.73
2023-01-30T05:52:23.065Z,24.57
2023-01-30T05:54:50.248Z,21.90
2023-01-30T05:57:17.490Z,22.30
2023-01-30T05:59:44.648Z,22.80
2023-01-30T06:02:12.152Z,26.60
2023-01-30T06:04:39.439Z,22.80
2023-01-30T06:07:06.607Z,25.10
2023-01-30T06:09:33.811Z,25.90
2023-01-30T06:12:01.562Z,26.43
2023-01-30T06:14:28.799Z,28.90
2023-01-30T06:16:56.019Z,22.00
2023-01-30T06:19:23.252Z,23.33
2023-01-30T06:21:50.575Z,30.13
2023-01-30T06:24:17.706Z,29.20
2023-01-30T06:26:44.879Z,22.67
2023-01-30T06:29:12.162Z,21.83
2023-01-30T06:31:39.383Z,22.10
2023-01-30T06:34:06.618Z,22.87
2023-01-30T06:36:33.838Z,22.93
2023-01-30T06:39:00.979Z,23.90
2023-01-30T06:41:28.170Z,21.50
2023-01-30T06:43:55.669Z,22.10
2023-01-30T06:46:23.256Z,24.47
2023-01-30T06:48:50.510Z,23.83
2023-01-30T06:51:17.647Z,21.00
2023-01-30T06:53:44.892Z,22.47
2023-01-30T06:56:12.076Z,29.63
2023-01-30T06:58:39.230Z,24.77
2023-01-30T07:01:06.444Z,24.57
2023-01-30T07:03:33.609Z,22.87
2023-01-30T07:06:00.773Z,23.57
2023-01-30T07:08:28.023Z,25.83
2023-01-30T07:10:55.503Z,23.93
2023-01-30T07:13:22.720Z,24.77
2023-01-30T07:15:50.658Z,20.90
2023-01-30T07:18:18.165Z,25.20
2023-01-30T07:20:51.491Z,23.13
2023-01-30T07:23:18.745Z,22.33
2023-01-30T07:25:46.041Z,19.80
2023-01-30T07:28:13.224Z,21.97
2023-01-30T07:30:40.404Z,22.17
2023-01-30T07:33:07.620Z,24.73
2023-01-30T07:35:36.475Z,21.60
2023-01-30T07:38:04.001Z,23.37
2023-01-30T07:40:31.511Z,20.90
2023-01-30T07:43:01.665Z,25.10
2023-01-30T07:45:29.914Z,22.67
2023-01-30T07:47:57.065Z,20.00
2023-01-30T07:50:24.400Z,22.40
2023-01-30T07:52:51.622Z,25.87
2023-01-30T07:55:19.092Z,23.13
2023-01-30T07:57:46.442Z,18.93
2023-01-30T08:00:13.859Z,20.53
2023-01-30T08:02:41.057Z,23.30
2023-01-30T08:05:08.381Z,24.87
2023-01-30T08:07:35.567Z,38.27
2023-01-30T08:10:02.824Z,26.37
2023-01-30T08:12:30.153Z,23.20
2023-01-30T08:14:57.491Z,25.20
2023-01-30T08:17:24.675Z,18.73
2023-01-30T08:19:51.871Z,19.90
2023-01-30T08:22:19.324Z,23.43
2023-01-30T08:24:46.462Z,21.93
2023-01-30T08:27:13.724Z,16.43
2023-01-30T08:29:40.900Z,20.10
2023-01-30T08:32:08.246Z,19.30
2023-01-30T08:34:36.079Z,20.90
2023-01-30T08:37:03.703Z,19.23
2023-01-30T08:39:30.971Z,23.30
2023-01-30T08:41:58.156Z,22.80
2023-01-30T08:44:25.670Z,22.30
2023-01-30T08:46:52.881Z,22.67
2023-01-30T08:49:20.130Z,22.03
2023-01-30T08:51:47.255Z,23.37
2023-01-30T08:54:14.425Z,21.47
2023-01-30T08:56:41.948Z,20.73
2023-01-30T08:59:09.178Z,20.63
2023-01-30T09:01:38.192Z,21.03
2023-01-30T09:04:05.498Z,22.33
2023-01-30T09:06:32.654Z,21.30
2023-01-30T09:09:00.693Z,27.37
2023-01-30T09:11:27.934Z,25.40
2023-01-30T09:13:55.125Z,22.87
2023-01-30T09:16:22.412Z,26.83
2023-01-30T09:18:49.637Z,24.13
2023-01-30T09:21:16.769Z,22.97
2023-01-30T09:23:44.099Z,24.67
2023-01-30T09:26:11.395Z,22.80
2023-01-30T09:28:38.622Z,24.40
2023-01-30T09:31:05.981Z,20.17
2023-01-30T09:33:33.210Z,26.63
2023-01-30T09:36:00.381Z,22.73
2023-01-30T09:38:27.607Z,23.13
2023-01-30T09:41:01.981Z,28.57
2023-01-30T09:43:29.098Z,24.30
2023-01-30T09:45:56.346Z,23.97
2023-01-30T09:48:26.384Z,24.83
2023-01-30T09:51:17.799Z,22.30
2023-01-30T09:53:45.119Z,24.60
2023-01-30T09:56:12.351Z,24.67
2023-01-30T09:58:43.470Z,23.60
2023-01-30T10:01:16.218Z,21.80
2023-01-30T10:04:02.769Z,20.67
2023-01-30T10:06:31.754Z,20.97
2023-01-30T10:09:17.456Z,20.33
2023-01-30T10:12:14.030Z,22.20
2023-01-30T10:15:03.665Z,23.83
2023-01-30T10:17:35.116Z,23.30
2023-01-30T10:20:06.492Z,19.20
2023-01-30T10:22:33.635Z,19.73
2023-01-30T10:25:23.858Z,20.83
2023-01-30T10:28:01.825Z,20.77
2023-01-30T10:30:29.372Z,19.77
2023-01-30T10:33:00.970Z,19.47
2023-01-30T10:35:34.766Z,22.03
2023-01-30T10:38:37.510Z,19.40
2023-01-30T10:41:13.515Z,19.23
2023-01-30T10:43:43.559Z,25.47
2023-01-30T10:46:10.869Z,23.33
2023-01-30T10:48:46.651Z,25.17
2023-01-30T10:51:23.329Z,24.43
2023-01-30T10:53:50.509Z,24.50
2023-01-30T10:56:21.667Z,21.33
2023-01-30T10:58:48.871Z,21.80
2023-01-30T11:01:21.726Z,18.97
2023-01-30T11:03:52.427Z,19.63
2023-01-30T11:06:23.919Z,16.97
2023-01-30T11:08:52.114Z,20.03
2023-01-30T11:11:22.243Z,18.03
2023-01-30T11:13:49.420Z,16.50
2023-01-30T11:16:17.147Z,19.03
2023-01-30T11:21:43.820Z,15.60
2023-01-30T11:24:17.263Z,16.03
2023-01-30T11:26:47.881Z,16.90
2023-01-30T11:29:38.354Z,14.20
2023-01-30T11:32:07.155Z,14.40
2023-01-30T11:34:36.968Z,16.70
2023-01-30T11:37:24.437Z,14.27
2023-01-30T11:39:52.500Z,17.00
2023-01-30T11:42:26.221Z,16.20
2023-01-30T11:45:16.303Z,17.97
2023-01-30T11:47:57.518Z,17.00
2023-01-30T11:50:32.668Z,13.60
2023-01-30T11:53:03.606Z,14.30
2023-01-30T11:55:34.589Z,15.63
2023-01-30T11:58:03.137Z,16.00
2023-01-30T12:00:39.252Z,15.40
2023-01-30T12:03:10.732Z,14.07
2023-01-30T12:05:42.544Z,16.50
2023-01-30T12:08:39.368Z,14.10
2023-01-30T12:11:24.386Z,12.03
2023-01-30T12:13:52.325Z,17.03
2023-01-30T12:16:38.311Z,13.23
2023-01-30T12:19:24.311Z,13.50
2023-01-30T12:22:14.754Z,16.00
2023-01-30T12:24:45.630Z,15.50
2023-01-30T12:27:17.184Z,10.13
2023-01-30T12:29:53.163Z,11.90
2023-01-30T12:32:22.162Z,10.30
2023-01-30T12:34:50.776Z,15.30
2023-01-30T12:37:44.696Z,13.27
2023-01-30T12:40:20.986Z,11.00
2023-01-30T12:43:06.288Z,9.93
2023-01-30T12:45:35.331Z,12.53
2023-01-30T12:48:08.435Z,11.67
2023-01-30T12:50:47.383Z,13.00
2023-01-30T12:53:23.434Z,12.60
2023-01-30T12:56:09.119Z,7.33
2023-01-30T12:59:05.665Z,12.53
2023-01-30T13:01:38.960Z,10.93
2023-01-30T13:04:25.621Z,12.20
2023-01-30T13:06:52.727Z,8.33
2023-01-30T13:09:27.490Z,13.33
2023-01-30T13:11:58.194Z,9.57
2023-01-30T13:14:38.284Z,12.37
2023-01-30T13:17:24.011Z,10.70
2023-01-30T13:20:10.228Z,9.53
2023-01-30T13:22:46.143Z,11.57
2023-01-30T13:25:24.802Z,12.17
2023-01-30T13:27:57.962Z,10.97
2023-01-30T13:30:27.787Z,10.93
2023-01-30T13:32:59.455Z,8.30
2023-01-30T13:35:37.631Z,11.63
2023-01-30T13:38:05.790Z,10.27
2023-01-30T13:40:43.669Z,11.73
2023-01-30T13:43:17.264Z,8.43
2023-01-30T13:45:46.644Z,8.80
2023-01-30T13:48:18.572Z,13.03
2023-01-30T13:51:04.660Z,9.47
2023-01-30T13:53:31.831Z,8.00
2023-01-30T13:56:02.429Z,9.17
2023-01-30T13:58:44.383Z,9.87
2023-01-30T14:01:13.071Z,11.13
2023-01-30T14:03:41.102Z,8.40
2023-01-30T14:06:15.723Z,11.53
2023-01-30T14:08:46.306Z,10.97
2023-01-30T14:11:34.348Z,12.03
2023-01-30T14:14:04.161Z,16.03
2023-01-30T14:16:45.532Z,12.23
2023-01-30T14:19:34.120Z,15.97
2023-01-30T14:22:03.753Z,15.33
2023-01-30T14:24:31.750Z,16.80
2023-01-30T14:26:59.041Z,12.73
2023-01-30T14:29:38.542Z,14.87
2023-01-30T14:32:15.540Z,12.50
2023-01-30T14:34:46.891Z,9.93
2023-01-30T14:37:32.912Z,8.83
2023-01-30T14:40:00.695Z,6.93
2023-01-30T14:42:29.928Z,8.20
2023-01-30T14:44:58.071Z,11.87
2023-01-30T14:47:34.146Z,11.63
2023-01-30T14:50:17.623Z,8.77
2023-01-30T14:52:44.979Z,10.60
2023-01-30T14:55:23.634Z,8.93
2023-01-30T14:57:54.741Z,10.83
2023-01-30T15:00:25.293Z,10.47
2023-01-30T15:02:57.330Z,9.23
2023-01-30T15:05:27.237Z,9.50
2023-01-30T15:07:57.174Z,9.00
2023-01-30T15:10:32.332Z,7.63
2023-01-30T15:13:25.961Z,8.57
2023-01-30T15:16:02.034Z,11.53
2023-01-30T15:18:36.961Z,9.93
2023-01-30T15:21:07.205Z,6.47
2023-01-30T15:23:57.020Z,11.37
2023-01-30T15:26:27.169Z,12.30
2023-01-30T15:29:12.907Z,7.97
2023-01-30T15:31:40.222Z,17.20
2023-01-30T15:34:19.780Z,11.33
2023-01-30T15:36:46.999Z,13.57
2023-01-30T15:39:21.654Z,12.77
2023-01-30T15:41:49.435Z,15.57
2023-01-30T15:44:22.792Z,8.87
2023-01-30T15:46:50.045Z,12.53
2023-01-30T15:49:35.832Z,9.57
2023-01-30T15:52:07.297Z,11.57
2023-01-30T15:54:34.866Z,8.13
2023-01-30T15:57:02.251Z,19.37
2023-01-30T15:59:38.087Z,80.87
2023-01-30T16:02:08.352Z,30.70
2023-01-30T16:04:35.693Z,19.37
2023-01-30T16:07:15.174Z,14.20
2023-01-30T16:09:47.400Z,12.10
2023-01-30T16:12:32.529Z,12.87
2023-01-30T16:15:12.317Z,11.87
2023-01-30T16:17:51.095Z,12.40
2023-01-30T16:20:18.636Z,20.20
2023-01-30T16:22:48.360Z,14.90
2023-01-30T16:25:30.274Z,19.10
2023-01-30T16:27:58.587Z,14.60
2023-01-30T16:30:28.235Z,12.17
2023-01-30T16:32:56.485Z,33.40
2023-01-30T16:35:27.799Z,48.67
2023-01-30T16:37:57.666Z,27.03
2023-01-30T16:40:26.697Z,21.20
2023-01-30T16:43:26.437Z,18.93
2023-01-30T16:45:53.699Z,17.63
2023-01-30T16:48:23.603Z,14.50
2023-01-30T16:51:05.606Z,18.97
2023-01-30T16:53:33.345Z,18.17
2023-01-30T16:56:00.477Z,16.13
2023-01-30T16:58:32.440Z,12.20
2023-01-30T17:01:03.984Z,15.37
2023-01-30T17:03:57.976Z,8.70
2023-01-30T17:06:32.230Z,10.33
2023-01-30T17:08:59.439Z,12.53
2023-01-30T17:11:37.370Z,14.83
2023-01-30T17:14:11.834Z,12.63
2023-01-30T17:16:40.488Z,13.07
2023-01-30T17:19:07.897Z,10.13
2023-01-30T17:21:43.376Z,10.93
2023-01-30T17:24:13.569Z,15.03
2023-01-30T17:26:41.156Z,12.13
2023-01-30T17:29:23.132Z,13.97
2023-01-30T17:31:56.771Z,10.17
2023-01-30T17:34:24.293Z,7.60
2023-01-30T17:36:52.892Z,10.40
2023-01-30T17:39:21.124Z,8.67
2023-01-30T17:41:48.808Z,7.07
2023-01-30T17:44:16.208Z,7.40
2023-01-30T17:46:47.549Z,9.33
2023-01-30T17:49:15.840Z,6.93
2023-01-30T17:51:43.304Z,7.57
2023-01-30T17:54:11.258Z,10.50
2023-01-30T17:56:39.650Z,8.40
2023-01-30T17:59:08.591Z,7.00
2023-01-30T18:01:35.818Z,7.67
2023-01-30T18:04:03.236Z,8.50
2023-01-30T18:06:32.017Z,9.70
2023-01-30T18:08:59.209Z,11.67
2023-01-30T18:11:26.705Z,10.37
2023-01-30T18:13:55.182Z,11.73
2023-01-30T18:16:31.143Z,13.33
2023-01-30T18:19:11.507Z,6.57
2023-01-30T18:21:45.173Z,7.30
2023-01-30T18:24:13.279Z,7.00
2023-01-30T18:26:40.621Z,5.47
2023-01-30T18:29:09.929Z,6.00
2023-01-30T18:31:38.318Z,7.93
2023-01-30T18:34:08.946Z,7.97
2023-01-30T18:36:36.717Z,8.00
2023-01-30T18:39:05.455Z,7.37
2023-01-30T18:41:33.082Z,12.27
2023-01-30T18:44:01.594Z,5.20
2023-01-30T18:46:29.580Z,6.87
2023-01-30T18:48:57.206Z,11.53
2023-01-30T18:51:29.012Z,11.63
2023-01-30T18:53:56.588Z,7.73
2023-01-30T18:56:28.051Z,9.53
2023-01-30T18:58:56.488Z,8.60
2023-01-30T19:01:28.070Z,13.13
2023-01-30T19:03:59.001Z,7.43
2023-01-30T19:06:26.674Z,10.20
2023-01-30T19:08:53.926Z,7.10
2023-01-30T19:11:41.187Z,9.10
2023-01-30T19:14:09.011Z,8.17
2023-01-30T19:16:37.116Z,8.53
2023-01-30T19:19:04.984Z,6.33
2023-01-30T19:21:32.347Z,18.83
2023-01-30T19:23:59.967Z,14.93
2023-01-30T19:26:29.040Z,12.73
2023-01-30T19:28:56.325Z,8.87
2023-01-30T19:31:23.962Z,6.50
2023-01-30T19:33:55.870Z,5.57
2023-01-30T19:36:24.184Z,5.60
2023-01-30T19:38:51.891Z,5.13
2023-01-30T19:41:26.331Z,3.87
2023-01-30T19:43:54.121Z,5.90
2023-01-30T19:46:21.746Z,8.23
2023-01-30T19:48:49.429Z,8.60
2023-01-30T19:51:17.755Z,7.40
2023-01-30T19:53:45.608Z,12.50
2023-01-30T19:56:13.751Z,6.00
2023-01-30T19:58:42.460Z,12.27
2023-01-30T20:01:13.351Z,10.53
2023-01-30T20:03:41.593Z,9.87
2023-01-30T20:06:13.367Z,9.73
2023-01-30T20:08:41.163Z,10.17
2023-01-30T20:11:10.058Z,6.77
2023-01-30T20:13:38.547Z,7.83
2023-01-30T20:16:06.899Z,8.27
2023-01-30T20:18:36.201Z,9.43
2023-01-30T20:21:06.913Z,11.33
2023-01-30T20:23:34.463Z,12.17
2023-01-30T20:26:11.452Z,11.57
2023-01-30T20:28:39.154Z,12.97
2023-01-30T20:31:10.511Z,6.57
2023-01-30T20:33:38.771Z,13.97
2023-01-30T20:36:07.712Z,7.63
2023-01-30T20:38:35.724Z,10.20
2023-01-30T20:41:07.426Z,10.80
2023-01-30T20:43:35.112Z,13.07
2023-01-30T20:46:03.422Z,11.73
2023-01-30T20:48:30.924Z,9.47
2023-01-30T20:51:02.016Z,15.00
2023-01-30T20:53:29.290Z,8.73
2023-01-30T20:55:59.675Z,10.67
2023-01-30T20:58:27.560Z,9.03
2023-01-30T21:00:55.028Z,13.07
2023-01-30T21:03:25.621Z,8.93
2023-01-30T21:05:57.031Z,8.27
2023-01-30T21:08:24.427Z,13.67
2023-01-30T21:10:51.706Z,15.57
2023-01-30T21:13:19.130Z,9.00
2023-01-30T21:15:46.384Z,8.43
2023-01-30T21:18:13.824Z,8.33
2023-01-30T21:20:41.075Z,14.30
2023-01-30T21:23:08.373Z,16.00
2023-01-30T21:25:36.137Z,17.50
2023-01-30T21:28:03.557Z,12.93
2023-01-30T21:30:31.018Z,11.67
2023-01-30T21:32:58.551Z,12.63
2023-01-30T21:35:25.739Z,12.33
2023-01-30T21:38:11.673Z,14.27
2023-01-30T21:40:57.788Z,11.60
2023-01-30T21:43:24.957Z,10.17
2023-01-30T21:45:57.716Z,21.93
2023-01-30T21:48:24.918Z,18.13
2023-01-30T21:50:52.155Z,19.00
2023-01-30T21:53:19.341Z,16.83
2023-01-30T21:55:53.390Z,15.27
2023-01-30T21:58:20.704Z,19.27
2023-01-30T22:00:47.846Z,18.27
2023-01-30T22:03:15.060Z,15.33
2023-01-30T22:05:45.448Z,16.90
2023-01-30T22:08:12.624Z,13.47
2023-01-30T22:10:39.924Z,26.70
2023-01-30T22:13:07.178Z,13.07
2023-01-30T22:15:34.402Z,21.87
2023-01-30T22:18:03.544Z,24.77
2023-01-30T22:20:30.737Z,20.47
2023-01-30T22:22:57.867Z,22.00
2023-01-30T22:25:25.075Z,20.30
2023-01-30T22:27:52.259Z,24.87
2023-01-30T22:30:19.474Z,22.17
2023-01-30T22:32:46.889Z,23.27
2023-01-30T22:35:14.111Z,22.03
2023-01-30T22:37:41.236Z,21.27
2023-01-30T22:40:08.976Z,21.63
2023-01-30T22:42:36.158Z,18.17
2023-01-30T22:45:03.317Z,21.20
2023-01-30T22:47:30.499Z,19.80
2023-01-30T22:49:57.815Z,24.60
2023-01-30T22:52:24.973Z,15.77
2023-01-30T22:54:52.178Z,18.13
2023-01-30T22:57:19.378Z,18.00
2023-01-30T22:59:46.518Z,16.20
2023-01-30T23:02:13.822Z,14.30
2023-01-30T23:04:41.430Z,12.10
2023-01-30T23:07:10.675Z,17.17
2023-01-30T23:09:37.986Z,16.13
2023-01-30T23:12:25.490Z,18.27
2023-01-30T23:14:52.688Z,13.57
2023-01-30T23:17:39.162Z,18.87
2023-01-30T23:20:06.635Z,22.37
2023-01-30T23:22:33.978Z,14.87
2023-01-30T23:25:01.267Z,11.57
2023-01-30T23:27:28.416Z,20.47
2023-01-30T23:29:55.612Z,21.93
2023-01-30T23:32:23.801Z,16.37
2023-01-30T23:34:51.521Z,14.43
2023-01-30T23:37:18.738Z,10.53
2023-01-30T23:39:45.987Z,14.27
2023-01-30T23:42:13.347Z,15.33
2023-01-30T23:44:40.614Z,12.83
2023-01-30T23:47:07.786Z,14.40
2023-01-30T23:49:35.377Z,14.07
2023-01-30T23:52:02.601Z,16.80
2023-01-30T23:54:29.804Z,22.13
2023-01-30T23:56:57.042Z,14.03
2023-01-30T23:59:24.196Z,9.33
